Time;durP1;ratioP1;P1;durP2;ratioP2;P2;SDS_P1;SDS_P2;PMS_P1;PMS_P2;Temp;Humidity;BMP_temperature;BMP_pressure;BME280_temperature;BME280_humidity;BME280_pressure;Samples;Min_cycle;Max_cycle;Signal;HPM_P1;HPM_P2
2023/05/29 00:01:12;;;;;;;12.82;5.38;;;;;;;12.98;100.00;101851.53;6119340;23;20013;-82
2023/05/29 00:03:37;;;;;;;9.70;5.30;;;;;;;13.17;100.00;101888.72;6141166;23;20052;-82
2023/05/29 00:06:03;;;;;;;10.52;5.63;;;;;;;13.06;100.00;101890.34;6119379;23;20013;-81
2023/05/29 00:08:29;;;;;;;11.10;5.57;;;;;;;13.08;100.00;101892.13;6145540;23;20063;-81
2023/05/29 00:10:55;;;;;;;10.95;5.05;;;;;;;13.03;100.00;101889.72;6117904;23;20029;-82
2023/05/29 00:13:20;;;;;;;13.70;5.13;;;;;;;13.02;100.00;101901.72;6140603;23;20009;-81
2023/05/29 00:15:46;;;;;;;11.20;5.28;;;;;;;12.94;100.00;101904.16;6166391;23;20013;-81
2023/05/29 00:18:11;;;;;;;13.05;5.40;;;;;;;12.85;100.00;101898.31;6168208;23;20060;-82
2023/05/29 00:20:37;;;;;;;10.73;4.65;;;;;;;12.80;100.00;101896.88;6168207;23;20040;-81
2023/05/29 00:23:05;;;;;;;13.38;5.18;;;;;;;12.79;100.00;101898.75;6119174;23;20018;-81
2023/05/29 00:25:31;;;;;;;9.18;5.25;;;;;;;12.76;100.00;101898.97;6149395;23;20048;-81
2023/05/29 00:27:57;;;;;;;11.45;5.15;;;;;;;12.66;100.00;101892.38;6165219;23;20327;-81
2023/05/29 00:30:22;;;;;;;11.40;5.40;;;;;;;12.57;100.00;101893.91;6140104;23;20052;-81
2023/05/29 00:32:48;;;;;;;13.57;6.00;;;;;;;12.61;100.00;101911.03;6165810;23;20009;-81
2023/05/29 00:35:13;;;;;;;9.55;4.70;;;;;;;12.61;100.00;101909.19;6165422;23;20006;-81
2023/05/29 00:37:39;;;;;;;10.98;4.70;;;;;;;12.57;100.00;101915.00;6117230;23;20112;-81
2023/05/29 00:40:06;;;;;;;11.00;5.03;;;;;;;12.51;100.00;101913.59;6117297;23;20024;-82
2023/05/29 00:42:32;;;;;;;11.40;4.05;;;;;;;12.54;100.00;101923.47;6143640;23;20060;-81
2023/05/29 00:44:57;;;;;;;11.48;4.10;;;;;;;12.47;100.00;101920.25;6203920;23;19993;-82
2023/05/29 00:47:23;;;;;;;16.23;3.97;;;;;;;12.43;100.00;101919.59;6129769;23;20009;-82
2023/05/29 00:49:51;;;;;;;13.38;4.20;;;;;;;12.45;100.00;101931.34;6128815;23;20005;-82
2023/05/29 00:52:17;;;;;;;16.52;3.80;;;;;;;12.32;100.00;101934.06;6130971;23;20013;-82
2023/05/29 00:54:44;;;;;;;14.60;3.42;;;;;;;12.06;100.00;101913.91;6177779;23;20053;-82
2023/05/29 00:57:11;;;;;;;16.75;3.72;;;;;;;12.14;100.00;101927.97;6149423;23;20009;-81
2023/05/29 00:59:37;;;;;;;10.00;3.83;;;;;;;12.07;100.00;101940.38;6146016;23;20017;-80
2023/05/29 01:02:03;;;;;;;18.55;3.65;;;;;;;12.00;100.00;101929.91;6111388;23;20009;-81
2023/05/29 01:04:29;;;;;;;12.70;3.35;;;;;;;11.95;100.00;101909.16;6107637;23;20492;-81
2023/05/29 01:06:56;;;;;;;17.05;2.80;;;;;;;11.97;100.00;101938.34;6158738;23;20009;-81
2023/05/29 01:09:21;;;;;;;14.82;3.22;;;;;;;11.92;100.00;101944.16;6156895;23;20092;-81
2023/05/29 01:11:57;;;;;;;12.07;2.53;;;;;;;11.91;100.00;101935.03;6083745;23;20040;-82
2023/05/29 01:14:36;;;;;;;15.52;2.85;;;;;;;11.78;100.00;101945.91;6131744;23;20100;-81
2023/05/29 01:17:11;;;;;;;10.98;2.08;;;;;;;11.77;100.00;101952.41;6132328;23;20013;-81
2023/05/29 01:20:09;;;;;;;13.80;3.20;;;;;;;11.72;100.00;101948.19;6132291;23;20009;-81
2023/05/29 01:22:46;;;;;;;11.80;2.45;;;;;;;11.58;100.00;101947.25;6132571;23;20033;-81
2023/05/29 01:25:29;;;;;;;18.88;3.22;;;;;;;11.53;100.00;101946.69;6159808;23;20503;-81
2023/05/29 01:27:55;;;;;;;15.32;2.30;;;;;;;11.57;100.00;101947.34;6136049;23;20018;-81
2023/05/29 01:30:23;;;;;;;10.30;2.33;;;;;;;11.56;100.00;101956.59;6161507;23;20013;-81
2023/05/29 01:32:50;;;;;;;11.82;2.70;;;;;;;11.47;100.00;101949.81;6112473;23;20416;-82
2023/05/29 01:35:15;;;;;;;14.80;2.60;;;;;;;11.32;100.00;101946.22;6112438;23;20345;-81
2023/05/29 01:37:41;;;;;;;9.55;2.20;;;;;;;11.32;100.00;101948.97;6107100;23;20026;-81
2023/05/29 01:40:08;;;;;;;15.20;1.90;;;;;;;11.17;100.00;101919.81;6132030;23;20025;-82
2023/05/29 01:42:34;;;;;;;10.80;2.33;;;;;;;11.27;100.00;101947.50;6108122;23;20014;-81
2023/05/29 01:45:01;;;;;;;12.80;2.25;;;;;;;11.31;100.00;101966.38;6132504;23;20331;-81
2023/05/29 01:47:27;;;;;;;14.65;2.58;;;;;;;11.14;100.00;101950.16;6156028;23;20013;-81
2023/05/29 01:49:54;;;;;;;17.10;2.63;;;;;;;11.23;100.00;101960.50;6131395;23;20067;-80
2023/05/29 01:52:20;;;;;;;11.45;2.25;;;;;;;11.19;100.00;101969.91;6156522;23;20497;-80
2023/05/29 01:54:45;;;;;;;8.55;1.90;;;;;;;11.18;100.00;101966.31;6107530;23;20045;-80
2023/05/29 01:57:12;;;;;;;16.20;2.75;;;;;;;11.05;100.00;101959.81;6156421;23;20081;-80
2023/05/29 01:59:38;;;;;;;11.18;2.35;;;;;;;11.10;100.00;101962.28;6156908;23;20084;-80
2023/05/29 02:02:11;;;;;;;18.55;2.13;;;;;;;10.99;100.00;101958.38;6132396;23;20096;-81
2023/05/29 02:04:37;;;;;;;11.02;2.22;;;;;;;10.97;100.00;101962.16;6131323;23;20020;-80
2023/05/29 02:07:03;;;;;;;14.23;2.20;;;;;;;10.98;100.00;101961.19;6107737;23;20009;-80
2023/05/29 02:09:28;;;;;;;10.02;2.00;;;;;;;10.98;100.00;101969.41;6083796;23;20021;-80
2023/05/29 02:11:54;;;;;;;16.27;2.00;;;;;;;10.92;100.00;101946.03;6107030;23;20010;-80
2023/05/29 02:14:19;;;;;;;12.98;1.92;;;;;;;10.98;100.00;101967.53;6131766;23;20037;-81
2023/05/29 02:16:45;;;;;;;13.02;2.20;;;;;;;10.97;100.00;101957.59;6107307;23;20012;-80
2023/05/29 02:19:11;;;;;;;10.88;1.95;;;;;;;10.91;100.00;101960.72;6131496;23;20076;-80
2023/05/29 02:21:42;;;;;;;9.35;2.10;;;;;;;10.90;100.00;101960.78;6156945;23;20736;-80
2023/05/29 02:24:08;;;;;;;10.63;2.20;;;;;;;10.83;100.00;101963.03;6109214;23;20020;-80
2023/05/29 02:26:36;;;;;;;9.77;2.00;;;;;;;10.81;100.00;101954.06;6108355;23;20013;-80
2023/05/29 02:29:02;;;;;;;16.60;2.42;;;;;;;10.83;100.00;101971.25;6108837;23;20009;-80
2023/05/29 02:31:28;;;;;;;13.95;1.90;;;;;;;10.89;100.00;101961.75;6159148;23;20033;-81
2023/05/29 02:33:53;;;;;;;9.77;2.05;;;;;;;10.84;100.00;101975.78;6133779;23;20445;-81
2023/05/29 02:36:19;;;;;;;12.77;2.63;;;;;;;10.83;100.00;101982.22;6109381;23;20018;-81
2023/05/29 02:38:44;;;;;;;12.60;2.10;;;;;;;10.73;100.00;101961.88;6109556;23;20013;-82
2023/05/29 02:41:10;;;;;;;13.25;2.15;;;;;;;10.63;100.00;101967.03;6134388;23;20017;-81
2023/05/29 02:43:35;;;;;;;10.75;2.05;;;;;;;10.73;100.00;101984.66;6110311;23;20017;-81
2023/05/29 02:46:00;;;;;;;12.50;1.98;;;;;;;10.68;100.00;101984.06;6088288;23;20484;-81
2023/05/29 02:48:26;;;;;;;17.45;2.30;;;;;;;10.65;100.00;101987.84;6136371;23;20006;-81
2023/05/29 02:50:52;;;;;;;12.18;2.00;;;;;;;10.63;100.00;101991.69;6112421;23;20477;-80
2023/05/29 02:53:18;;;;;;;8.73;1.60;;;;;;;10.62;100.00;101990.78;6191018;23;20009;-81
2023/05/29 02:55:43;;;;;;;10.27;1.63;;;;;;;10.63;100.00;101986.19;6115121;23;20006;-81
2023/05/29 02:58:11;;;;;;;17.42;2.47;;;;;;;10.59;100.00;101987.34;6138290;23;20016;-81
2023/05/29 03:00:36;;;;;;;13.73;2.15;;;;;;;10.53;100.00;101987.75;6147916;23;20010;-81
2023/05/29 03:03:03;;;;;;;12.23;1.77;;;;;;;10.40;100.00;101983.00;6163880;23;20025;-82
2023/05/29 03:05:28;;;;;;;17.73;2.33;;;;;;;10.39;100.00;101997.66;6088598;23;20039;-81
2023/05/29 03:07:54;;;;;;;10.95;1.83;;;;;;;10.34;100.00;102002.53;6111829;23;20006;-81
2023/05/29 03:10:20;;;;;;;16.15;2.35;;;;;;;10.33;100.00;102000.78;6087052;23;20013;-81
2023/05/29 03:12:46;;;;;;;16.75;1.73;;;;;;;10.32;100.00;101998.09;6111213;23;20334;-81
2023/05/29 03:15:12;;;;;;;13.25;2.08;;;;;;;10.23;100.00;101985.81;6135582;23;20016;-82
2023/05/29 03:17:38;;;;;;;13.00;1.85;;;;;;;10.30;100.00;101998.19;6134746;23;20010;-81
2023/05/29 03:20:07;;;;;;;17.85;2.20;;;;;;;10.19;100.00;101998.81;6159990;23;20018;-80
2023/05/29 03:22:35;;;;;;;14.02;2.38;;;;;;;10.14;100.00;101997.34;6158884;23;20076;-81
2023/05/29 03:25:02;;;;;;;17.42;2.40;;;;;;;10.13;100.00;101985.47;6135170;23;20390;-80
2023/05/29 03:27:29;;;;;;;9.63;1.80;;;;;;;10.06;100.00;101979.50;6134575;23;20120;-80
2023/05/29 03:30:04;;;;;;;14.32;1.73;;;;;;;10.20;100.00;101996.94;6111138;23;20024;-80
2023/05/29 03:32:29;;;;;;;15.38;2.17;;;;;;;10.03;100.00;101993.34;6160878;23;20013;-80
2023/05/29 03:34:56;;;;;;;14.65;2.28;;;;;;;10.06;100.00;101984.09;6110012;23;20009;-80
2023/05/29 03:37:21;;;;;;;8.80;2.00;;;;;;;10.10;100.00;101997.50;6158453;23;20017;-79
2023/05/29 03:39:47;;;;;;;6.60;1.63;;;;;;;10.02;100.00;101996.16;6134235;23;20037;-81
2023/05/29 03:42:13;;;;;;;14.38;2.10;;;;;;;10.05;100.00;102002.38;6109547;23;20010;-80
2023/05/29 03:44:38;;;;;;;10.52;1.63;;;;;;;10.14;100.00;102011.00;6158661;23;20318;-80
2023/05/29 03:47:04;;;;;;;15.45;2.05;;;;;;;10.17;100.00;102008.97;6135163;23;20009;-79
2023/05/29 03:49:29;;;;;;;15.75;1.98;;;;;;;10.07;100.00;102005.03;6110657;23;20036;-80
2023/05/29 03:51:55;;;;;;;13.25;1.88;;;;;;;10.09;100.00;102012.16;6110069;23;20060;-81
2023/05/29 03:54:20;;;;;;;10.55;2.00;;;;;;;10.07;100.00;102008.63;6132503;23;20009;-81
2023/05/29 03:56:46;;;;;;;17.40;2.13;;;;;;;10.05;100.00;102010.56;6134977;23;20021;-81
2023/05/29 03:59:11;;;;;;;19.77;1.90;;;;;;;9.98;100.00;102011.03;6136471;23;20013;-81
2023/05/29 04:01:36;;;;;;;13.15;2.33;;;;;;;10.06;100.00;102019.66;6087993;23;20014;-81
2023/05/29 04:04:02;;;;;;;17.90;2.42;;;;;;;10.15;100.00;102018.22;6110299;23;20017;-81
2023/05/29 04:06:27;;;;;;;13.75;1.80;;;;;;;10.06;100.00;102017.78;6135299;23;20033;-81
2023/05/29 04:08:53;;;;;;;16.15;2.05;;;;;;;9.98;100.00;102011.03;6139094;23;20040;-81
2023/05/29 04:11:20;;;;;;;13.75;2.50;;;;;;;10.06;100.00;102014.19;6136577;23;20052;-82
2023/05/29 04:13:47;;;;;;;16.48;2.67;;;;;;;10.01;100.00;102021.78;6158211;23;20088;-81
2023/05/29 04:16:13;;;;;;;17.00;2.10;;;;;;;10.09;100.00;102027.69;6138830;23;20010;-81
2023/05/29 04:18:38;;;;;;;19.77;2.67;;;;;;;9.98;100.00;102013.75;6161846;23;20076;-81
2023/05/29 04:21:04;;;;;;;18.13;2.00;;;;;;;10.15;100.00;102031.91;6136225;23;20064;-81
2023/05/29 04:23:29;;;;;;;12.57;1.88;;;;;;;10.02;100.00;102016.22;6109100;23;20018;-82
2023/05/29 04:25:55;;;;;;;13.45;2.25;;;;;;;10.08;100.00;102024.09;6110170;23;20010;-81
2023/05/29 04:28:21;;;;;;;14.32;1.75;;;;;;;10.14;100.00;102024.69;6109665;23;20046;-82
2023/05/29 04:30:47;;;;;;;12.85;1.75;;;;;;;10.09;100.00;102031.31;6159089;23;20013;-83
2023/05/29 04:33:14;;;;;;;12.48;2.35;;;;;;;10.22;100.00;102041.56;6135225;23;20218;-81
2023/05/29 04:35:42;;;;;;;15.65;1.80;;;;;;;10.15;100.00;102031.91;6113218;23;20016;-81
2023/05/29 04:38:09;;;;;;;26.30;2.53;;;;;;;10.28;100.00;102027.47;6140488;23;20348;-81
2023/05/29 04:40:36;;;;;;;16.85;2.38;;;;;;;10.15;100.00;102007.28;6139025;23;20020;-83
2023/05/29 04:43:05;;;;;;;9.93;1.65;;;;;;;10.22;100.00;102042.44;6142388;23;20060;-81
2023/05/29 04:45:30;;;;;;;8.88;1.80;;;;;;;10.33;100.00;102041.84;6161726;23;20329;-84
2023/05/29 04:47:56;;;;;;;20.85;2.20;;;;;;;10.36;100.00;102051.72;6138243;23;20013;-83
2023/05/29 04:50:23;;;;;;;17.98;2.28;;;;;;;10.23;100.00;102019.56;6137963;23;20008;-84
2023/05/29 04:52:48;;;;;;;14.43;2.10;;;;;;;10.38;100.00;102053.41;6140093;23;20024;-84
2023/05/29 04:55:14;;;;;;;16.80;2.05;;;;;;;10.49;100.00;102052.75;6168431;23;20013;-84
2023/05/29 04:57:40;;;;;;;10.50;2.03;;;;;;;10.53;100.00;102048.88;6199812;23;20031;-83
2023/05/29 05:00:08;;;;;;;14.52;2.13;;;;;;;10.59;100.00;102053.06;6154564;23;20039;-81
2023/05/29 05:02:34;;;;;;;18.92;2.75;;;;;;;10.68;100.00;102049.78;6153415;23;20039;-82
2023/05/29 05:04:59;;;;;;;14.45;2.45;;;;;;;10.63;100.00;102044.59;6181664;23;20345;-82
2023/05/29 05:07:25;;;;;;;18.13;2.67;;;;;;;10.69;100.00;102047.94;6156111;23;20005;-84
2023/05/29 05:09:50;;;;;;;11.05;2.17;;;;;;;10.70;100.00;102055.19;6176681;23;20016;-83
2023/05/29 05:12:16;;;;;;;17.98;2.40;;;;;;;10.62;100.00;102047.41;6151288;23;20059;-79
2023/05/29 05:14:41;;;;;;;14.10;1.98;;;;;;;10.71;100.00;102056.94;6152932;23;20009;-84
2023/05/29 05:17:07;;;;;;;18.13;1.98;;;;;;;10.83;100.00;102062.53;6115866;23;20020;-80
2023/05/29 05:19:32;;;;;;;16.33;2.03;;;;;;;11.01;100.00;102066.03;6111972;23;20453;-80
2023/05/29 05:21:58;;;;;;;13.00;1.75;;;;;;;11.08;100.00;102055.56;6136606;23;20037;-80
2023/05/29 05:24:23;;;;;;;15.68;1.65;;;;;;;11.20;100.00;102054.81;6137286;23;20013;-80
2023/05/29 05:26:49;;;;;;;13.93;2.53;;;;;;;11.52;100.00;102053.75;6112481;23;20072;-81
2023/05/29 05:29:14;;;;;;;12.88;1.92;;;;;;;11.44;100.00;102034.16;6187901;23;20005;-80
2023/05/29 05:31:40;;;;;;;14.88;2.15;;;;;;;11.88;100.00;102064.19;6161185;23;20009;-80
2023/05/29 05:34:06;;;;;;;14.07;2.28;;;;;;;11.84;100.00;102061.75;6160951;23;20013;-80
2023/05/29 05:36:32;;;;;;;19.90;2.75;;;;;;;12.07;100.00;102052.94;6131114;23;20379;-80
2023/05/29 05:38:58;;;;;;;17.23;2.45;;;;;;;12.24;100.00;102057.28;6107104;23;20005;-81
2023/05/29 05:41:23;;;;;;;22.30;2.45;;;;;;;12.49;100.00;102061.13;6130743;23;20500;-79
2023/05/29 05:43:49;;;;;;;15.02;2.25;;;;;;;12.54;100.00;102069.06;6158175;23;20006;-80
2023/05/29 05:46:17;;;;;;;11.82;2.20;;;;;;;12.65;100.00;102061.84;6131273;23;20014;-80
2023/05/29 05:48:45;;;;;;;12.77;2.15;;;;;;;12.98;100.00;102067.88;6107643;23;20010;-81
2023/05/29 05:51:11;;;;;;;16.27;2.33;;;;;;;13.06;100.00;102066.31;6131615;23;20053;-80
2023/05/29 05:53:37;;;;;;;11.77;2.00;;;;;;;13.24;100.00;102038.53;6155183;23;20036;-79
2023/05/29 05:56:03;;;;;;;12.65;1.88;;;;;;;13.14;100.00;102067.69;6134179;23;20442;-84
2023/05/29 05:58:28;;;;;;;17.05;2.22;;;;;;;13.38;100.00;102067.81;6142378;23;20033;-84
2023/05/29 06:00:53;;;;;;;17.85;2.63;;;;;;;13.51;100.00;102063.22;6141199;23;20025;-83
2023/05/29 06:03:20;;;;;;;11.32;1.83;;;;;;;13.22;100.00;102051.50;6118179;23;20017;-83
2023/05/29 06:05:46;;;;;;;17.23;4.15;;;;;;;13.63;100.00;102058.69;6170961;23;20029;-84
2023/05/29 06:08:12;;;;;;;14.98;2.28;;;;;;;13.54;100.00;102070.34;6147529;23;20013;-83
2023/05/29 06:10:37;;;;;;;11.48;1.77;;;;;;;13.50;100.00;102053.19;6147312;23;20028;-84
2023/05/29 06:13:02;;;;;;;15.45;2.00;;;;;;;13.55;100.00;102073.00;6123014;23;20014;-84
2023/05/29 06:15:28;;;;;;;13.93;2.33;;;;;;;13.36;100.00;102061.56;6168959;23;20017;-84
2023/05/29 06:17:55;;;;;;;12.68;1.70;;;;;;;13.74;100.00;102077.16;6172906;23;20018;-84
2023/05/29 06:20:21;;;;;;;20.70;2.45;;;;;;;13.98;100.00;102080.84;6128071;23;20037;-83
2023/05/29 06:22:50;;;;;;;15.77;1.83;;;;;;;13.89;100.00;102080.69;6150676;23;20056;-84
2023/05/29 06:25:19;;;;;;;13.52;1.88;;;;;;;14.20;100.00;102078.38;6124532;23;20010;-84
2023/05/29 06:27:44;;;;;;;12.55;2.03;;;;;;;14.40;100.00;102085.16;6167102;23;20010;-84
2023/05/29 06:30:11;;;;;;;10.73;1.88;;;;;;;14.39;100.00;102088.91;6159547;23;20017;-85
2023/05/29 06:32:37;;;;;;;12.98;1.92;;;;;;;14.64;100.00;102080.56;6133081;23;20069;-84
2023/05/29 06:35:03;;;;;;;13.40;1.70;;;;;;;14.58;100.00;102091.16;6132996;23;20013;-84
2023/05/29 06:37:29;;;;;;;13.05;2.00;;;;;;;14.33;100.00;102090.22;6132276;23;20467;-82
2023/05/29 06:39:54;;;;;;;16.58;2.35;;;;;;;14.53;100.00;102097.00;6131500;23;20048;-84
2023/05/29 06:42:20;;;;;;;21.00;2.90;;;;;;;14.65;100.00;102111.75;6157782;23;20017;-83
2023/05/29 06:44:45;;;;;;;17.23;2.25;;;;;;;14.79;100.00;102097.81;6156976;23;20408;-83
2023/05/29 06:47:10;;;;;;;10.98;1.73;;;;;;;14.94;100.00;102108.63;6108821;23;20777;-82
2023/05/29 06:49:36;;;;;;;9.23;1.35;;;;;;;14.86;100.00;102096.31;6156429;23;20037;-82
2023/05/29 06:52:01;;;;;;;8.65;2.17;;;;;;;14.99;99.56;102112.78;6157385;23;20044;-82
2023/05/29 06:54:27;;;;;;;13.02;1.65;;;;;;;14.94;99.25;102106.75;6107090;23;20020;-83
2023/05/29 06:56:53;;;;;;;14.45;1.67;;;;;;;15.24;97.54;102113.63;6108993;23;20088;-83
2023/05/29 06:59:19;;;;;;;11.85;2.22;;;;;;;15.13;99.04;102099.81;6156726;23;20013;-82
2023/05/29 07:01:45;;;;;;;14.07;2.00;;;;;;;15.64;94.44;102104.91;6157798;23;20374;-83
2023/05/29 07:04:11;;;;;;;9.68;1.75;;;;;;;15.44;96.67;102118.44;6107447;23;20052;-83
2023/05/29 07:06:36;;;;;;;13.07;1.95;;;;;;;15.99;92.16;102110.38;6131911;23;20382;-82
2023/05/29 07:09:02;;;;;;;11.07;2.47;;;;;;;15.47;93.12;102105.41;6132372;23;20071;-81
2023/05/29 07:11:27;;;;;;;13.02;1.63;;;;;;;15.62;91.58;102102.28;6157177;23;20064;-81
2023/05/29 07:13:54;;;;;;;11.20;1.95;;;;;;;16.17;91.36;102099.69;6132112;23;20013;-82
2023/05/29 07:16:20;;;;;;;10.05;1.60;;;;;;;15.73;89.43;102090.38;6157972;23;20013;-81
2023/05/29 07:18:45;;;;;;;11.30;2.20;;;;;;;16.46;86.33;102101.00;6155890;23;20378;-81
2023/05/29 07:21:11;;;;;;;11.77;1.50;;;;;;;16.09;86.76;102116.03;6156236;23;20064;-82
2023/05/29 07:23:36;;;;;;;12.57;1.92;;;;;;;16.08;86.25;102119.78;6156131;23;20013;-81
2023/05/29 07:26:02;;;;;;;12.15;1.63;;;;;;;15.68;88.42;102114.72;6156180;23;20020;-81
2023/05/29 07:28:27;;;;;;;23.35;2.47;;;;;;;16.05;86.17;102113.63;6155508;23;20013;-79
2023/05/29 07:30:53;;;;;;;8.27;1.35;;;;;;;16.25;87.43;102107.34;6105757;23;20084;-80
2023/05/29 07:33:18;;;;;;;8.68;1.65;;;;;;;16.17;86.21;102112.63;6104711;23;20081;-80
2023/05/29 07:35:43;;;;;;;12.07;1.83;;;;;;;15.70;88.94;102120.13;6108860;23;20067;-80
2023/05/29 07:38:09;;;;;;;9.68;2.08;;;;;;;16.37;84.10;102115.63;6160032;23;20067;-78
2023/05/29 07:40:34;;;;;;;11.40;1.70;;;;;;;16.59;83.27;102109.16;6134593;23;20384;-78
2023/05/29 07:43:00;;;;;;;10.60;1.73;;;;;;;16.43;82.42;102113.22;6185754;23;20453;-78
2023/05/29 07:45:25;;;;;;;15.45;2.22;;;;;;;17.48;79.07;102115.31;6158301;23;20071;-77
2023/05/29 07:47:51;;;;;;;12.70;2.25;;;;;;;17.35;78.34;102118.28;6158208;23;20045;-77
2023/05/29 07:50:16;;;;;;;12.00;2.10;;;;;;;17.99;77.63;102111.69;6158593;23;20437;-76
2023/05/29 07:52:45;;;;;;;10.00;1.63;;;;;;;17.93;76.14;102117.78;6159452;23;20036;-76
2023/05/29 07:55:10;;;;;;;8.57;1.98;;;;;;;18.30;75.25;102117.19;6111662;23;20254;-77
2023/05/29 07:57:35;;;;;;;11.13;1.80;;;;;;;18.67;70.08;102116.53;6158522;23;20508;-76
2023/05/29 08:00:08;;;;;;;7.93;1.48;;;;;;;18.96;69.42;102123.19;6132707;23;20012;-76
2023/05/29 08:02:36;;;;;;;12.88;1.80;;;;;;;18.88;67.73;102133.09;6158447;23;20075;-75
2023/05/29 08:05:07;;;;;;;8.43;1.83;;;;;;;18.60;66.82;102120.91;6158489;23;20013;-76
2023/05/29 08:07:33;;;;;;;13.75;1.85;;;;;;;18.42;66.33;102130.97;6184223;23;20099;-76
2023/05/29 08:09:58;;;;;;;6.97;1.40;;;;;;;18.78;66.15;102134.97;6109594;23;20433;-75
2023/05/29 08:12:24;;;;;;;11.52;1.55;;;;;;;18.57;63.54;102135.06;6132109;23;20055;-76
2023/05/29 08:14:50;;;;;;;15.25;2.28;;;;;;;17.97;66.19;102126.69;6182977;23;20442;-77
2023/05/29 08:17:16;;;;;;;13.65;2.00;;;;;;;18.06;65.01;102125.88;6158406;23;20099;-75
2023/05/29 08:19:41;;;;;;;8.68;1.92;;;;;;;18.77;63.73;102135.97;6158270;23;20040;-77
2023/05/29 08:22:07;;;;;;;15.95;2.05;;;;;;;18.46;63.46;102141.63;6185038;23;20013;-76
2023/05/29 08:24:32;;;;;;;11.43;2.05;;;;;;;18.94;62.58;102142.78;6180838;23;20016;-76
2023/05/29 08:26:58;;;;;;;13.95;1.85;;;;;;;19.53;61.09;102137.16;6155707;23;20013;-75
2023/05/29 08:29:23;;;;;;;9.10;1.80;;;;;;;19.24;62.93;102135.31;6157801;23;20012;-76
2023/05/29 08:31:49;;;;;;;8.45;1.77;;;;;;;19.09;62.01;102141.31;6159364;23;20067;-75
2023/05/29 08:34:15;;;;;;;8.55;1.73;;;;;;;19.08;61.11;102135.91;6183037;23;20013;-75
2023/05/29 08:36:41;;;;;;;6.45;1.10;;;;;;;19.27;61.05;102144.22;6128779;23;20017;-75
2023/05/29 08:39:07;;;;;;;7.30;1.45;;;;;;;19.42;58.96;102139.09;6129254;23;20006;-75
2023/05/29 08:41:43;;;;;;;8.95;1.70;;;;;;;18.97;59.92;102148.03;6129147;23;20037;-76
2023/05/29 08:44:12;;;;;;;7.68;1.23;;;;;;;18.53;60.92;102150.25;6154762;23;20063;-76
2023/05/29 08:46:40;;;;;;;8.52;1.88;;;;;;;19.14;62.41;102146.44;6153760;23;20010;-75
2023/05/29 08:49:08;;;;;;;8.35;1.60;;;;;;;19.67;60.66;102144.19;6154753;23;20425;-78
2023/05/29 08:51:38;;;;;;;8.45;1.50;;;;;;;19.95;59.13;102143.22;6156472;23;20018;-76
2023/05/29 08:54:04;;;;;;;9.10;1.63;;;;;;;19.67;58.95;102141.41;6153999;23;20091;-75
2023/05/29 08:56:30;;;;;;;14.35;2.22;;;;;;;20.36;57.68;102135.44;6155923;23;20005;-77
2023/05/29 08:58:57;;;;;;;7.60;1.80;;;;;;;19.71;59.93;102148.38;6152760;23;20017;-76
2023/05/29 09:01:23;;;;;;;11.88;1.83;;;;;;;20.06;59.59;102152.44;6127160;23;20132;-77
2023/05/29 09:03:48;;;;;;;12.10;2.50;;;;;;;20.17;58.06;102150.34;6127066;23;20351;-77
2023/05/29 09:06:14;;;;;;;15.38;1.88;;;;;;;20.06;60.22;102150.53;6128068;23;20009;-74
2023/05/29 09:08:39;;;;;;;8.77;1.77;;;;;;;20.31;57.76;102148.94;6151047;23;20389;-77
2023/05/29 09:11:05;;;;;;;12.65;1.95;;;;;;;19.40;58.85;102146.72;6126042;23;20450;-79
2023/05/29 09:13:31;;;;;;;16.42;1.88;;;;;;;19.63;59.19;102155.59;6150678;23;20072;-77
2023/05/29 09:16:02;;;;;;;9.27;2.13;;;;;;;19.71;59.53;102156.72;6153079;23;20013;-76
2023/05/29 09:18:30;;;;;;;12.25;2.17;;;;;;;19.19;59.73;102148.78;6154027;23;20496;-75
2023/05/29 09:20:56;;;;;;;12.77;1.92;;;;;;;19.56;59.42;102160.00;6129208;23;20088;-75
2023/05/29 09:23:21;;;;;;;12.70;1.85;;;;;;;19.69;60.42;102159.66;6153480;23;20013;-75
2023/05/29 09:25:53;;;;;;;10.35;1.77;;;;;;;19.77;58.51;102157.03;6152280;23;20394;-76
2023/05/29 09:28:21;;;;;;;11.40;1.92;;;;;;;20.22;57.82;102154.53;6149823;23;20009;-77
2023/05/29 09:30:47;;;;;;;7.03;1.27;;;;;;;19.67;58.45;102156.16;6152452;23;20429;-75
2023/05/29 09:33:14;;;;;;;8.65;2.25;;;;;;;19.09;59.34;102162.66;6154757;23;20032;-75
2023/05/29 09:35:48;;;;;;;9.07;1.88;;;;;;;19.96;58.17;102160.81;6153833;23;20037;-75
2023/05/29 09:38:18;;;;;;;9.18;1.77;;;;;;;19.61;58.35;102156.75;6157611;23;20013;-74
2023/05/29 09:40:47;;;;;;;10.93;1.60;;;;;;;20.08;56.79;102159.59;6183505;23;20020;-76
2023/05/29 09:43:16;;;;;;;14.35;1.70;;;;;;;20.27;56.45;102155.00;6133333;23;20021;-75
2023/05/29 09:45:51;;;;;;;11.13;1.55;;;;;;;20.33;55.32;102155.25;6182789;23;20021;-76
2023/05/29 09:48:21;;;;;;;9.30;1.90;;;;;;;20.17;54.75;102158.69;6157612;23;20017;-75
2023/05/29 09:50:50;;;;;;;9.20;1.67;;;;;;;20.13;55.24;102154.44;6157965;23;20451;-75
2023/05/29 09:53:17;;;;;;;10.02;1.50;;;;;;;20.01;55.94;102150.97;6183859;23;20013;-75
2023/05/29 09:55:43;;;;;;;12.27;2.05;;;;;;;20.55;54.92;102155.88;6183636;23;20015;-74
2023/05/29 09:58:12;;;;;;;11.40;1.77;;;;;;;20.84;54.02;102139.00;6184399;23;20092;-74
2023/05/29 10:00:38;;;;;;;8.70;1.45;;;;;;;21.35;53.79;102152.34;6157061;23;20009;-75
2023/05/29 10:03:04;;;;;;;9.38;1.55;;;;;;;20.96;54.35;102150.78;6182404;23;20013;-76
2023/05/29 10:05:30;;;;;;;16.58;2.60;;;;;;;21.25;53.49;102144.97;6188034;23;20792;-76
2023/05/29 10:07:55;;;;;;;17.35;2.20;;;;;;;21.50;52.58;102144.31;6187105;23;20013;-77
2023/05/29 10:10:24;;;;;;;12.93;1.92;;;;;;;21.19;52.66;102144.75;6161483;23;20009;-77
2023/05/29 10:12:50;;;;;;;16.23;2.17;;;;;;;21.55;53.32;102153.97;6188473;23;20109;-76
2023/05/29 10:15:18;;;;;;;9.23;1.83;;;;;;;20.74;52.38;102140.97;6187356;23;20032;-75
2023/05/29 10:18:02;;;;;;;6.88;1.92;;;;;;;20.87;51.79;102138.69;6160213;23;20016;-77
2023/05/29 10:20:28;;;;;;;11.68;1.73;;;;;;;21.27;51.45;102131.75;6184194;23;20005;-77
2023/05/29 10:22:56;;;;;;;8.32;1.70;;;;;;;21.18;52.08;102138.28;6156638;23;20013;-75
2023/05/29 10:25:24;;;;;;;6.75;1.95;;;;;;;20.93;53.20;102135.25;6156898;23;20012;-77
2023/05/29 10:27:50;;;;;;;13.60;2.53;;;;;;;20.72;54.17;102138.34;6185597;23;20005;-77
2023/05/29 10:30:41;;;;;;;7.53;1.60;;;;;;;20.60;54.46;102139.56;6160079;23;20020;-77
2023/05/29 10:33:12;;;;;;;9.00;1.88;;;;;;;20.74;54.01;102133.50;6188070;23;20005;-77
2023/05/29 10:35:46;;;;;;;9.27;1.70;;;;;;;20.56;53.78;102124.19;6160071;23;20021;-78
2023/05/29 10:38:16;;;;;;;5.45;1.40;;;;;;;21.46;52.26;102136.28;6156364;23;20013;-80
2023/05/29 10:40:45;;;;;;;9.48;2.15;;;;;;;21.11;53.16;102132.47;6133469;23;20013;-76
2023/05/29 10:43:33;;;;;;;7.35;1.65;;;;;;;21.46;52.87;102139.06;6158236;23;20055;-76
2023/05/29 10:46:00;;;;;;;7.47;1.48;;;;;;;21.03;53.02;102135.19;6158500;23;20009;-76
2023/05/29 10:48:28;;;;;;;8.07;1.65;;;;;;;21.34;52.13;102129.19;6133892;23;20091;-76
2023/05/29 10:50:55;;;;;;;6.70;1.45;;;;;;;21.01;53.63;102116.91;6186725;23;20013;-77
2023/05/29 10:53:30;;;;;;;10.65;1.98;;;;;;;20.82;53.08;102126.25;6137786;23;20023;-76
2023/05/29 10:55:55;;;;;;;13.90;1.63;;;;;;;21.08;53.80;102124.44;6139037;23;20091;-76
2023/05/29 10:58:24;;;;;;;10.43;1.67;;;;;;;21.05;52.03;102118.31;6160895;23;20017;-75
2023/05/29 11:00:50;;;;;;;13.82;1.90;;;;;;;20.93;53.70;102126.03;6188069;23;20017;-76
2023/05/29 11:03:23;;;;;;;10.45;1.85;;;;;;;21.24;53.11;102129.28;6189187;23;20096;-76
2023/05/29 11:06:02;;;;;;;6.70;1.70;;;;;;;21.09;52.29;102123.41;6160660;23;20028;-75
2023/05/29 11:08:47;;;;;;;12.45;1.75;;;;;;;21.08;51.72;102127.22;6159172;23;20008;-75
2023/05/29 11:11:14;;;;;;;8.32;1.42;;;;;;;21.16;51.63;102120.84;6187703;23;20005;-76
2023/05/29 11:13:40;;;;;;;7.38;1.73;;;;;;;21.42;53.08;102118.13;6163056;23;20009;-77